createdAt,value
2019-05-11T00:01:01.301Z,15.15
2019-05-11T00:03:40.018Z,14.83
2019-05-11T00:06:17.663Z,14.60
2019-05-11T00:08:55.656Z,14.38
2019-05-11T00:11:32.799Z,14.78
2019-05-11T00:14:10.698Z,15.03
2019-05-11T00:16:47.906Z,14.80
2019-05-11T00:19:26.693Z,15.72
2019-05-11T00:22:05.201Z,14.78
2019-05-11T00:24:42.176Z,15.03
2019-05-11T00:27:19.870Z,15.15
2019-05-11T00:29:58.045Z,15.25
2019-05-11T00:32:35.474Z,15.68
2019-05-11T00:35:13.899Z,14.80
2019-05-11T00:37:51.475Z,15.23
2019-05-11T00:40:30.376Z,15.72
2019-05-11T00:43:07.894Z,14.83
2019-05-11T00:45:45.642Z,15.15
2019-05-11T00:48:22.957Z,14.78
2019-05-11T00:51:00.809Z,14.65
2019-05-11T00:53:39.525Z,15.45
2019-05-11T00:56:16.941Z,14.83
2019-05-11T00:58:54.059Z,14.80
2019-05-11T01:01:33.022Z,14.75
2019-05-11T01:04:10.662Z,14.90
2019-05-11T01:06:47.871Z,15.20
2019-05-11T01:09:25.211Z,15.18
2019-05-11T01:12:03.683Z,15.05
2019-05-11T01:14:40.827Z,29.92
2019-05-11T01:17:18.516Z,33.88
2019-05-11T01:19:55.973Z,18.65
2019-05-11T01:22:35.243Z,15.13
2019-05-11T01:25:13.514Z,15.25
2019-05-11T01:27:51.040Z,14.83
2019-05-11T01:30:28.263Z,15.65
2019-05-11T01:33:06.598Z,15.83
2019-05-11T01:35:44.879Z,16.60
2019-05-11T01:38:22.461Z,15.25
2019-05-11T01:41:00.194Z,15.58
2019-05-11T01:43:39.020Z,15.38
2019-05-11T01:46:18.177Z,15.93
2019-05-11T01:48:55.524Z,16.20
2019-05-11T01:51:32.406Z,15.48
2019-05-11T01:54:10.535Z,15.20
2019-05-11T01:56:48.864Z,14.90
2019-05-11T01:59:26.948Z,15.93
2019-05-11T02:02:04.440Z,16.27
2019-05-11T02:04:43.247Z,16.07
2019-05-11T02:07:23.852Z,15.72
2019-05-11T02:10:02.869Z,17.03
2019-05-11T02:12:40.051Z,16.30
2019-05-11T02:15:18.263Z,16.15
2019-05-11T02:17:55.342Z,16.82
2019-05-11T02:20:32.602Z,16.25
2019-05-11T02:23:10.040Z,15.70
2019-05-11T02:25:48.085Z,16.17
2019-05-11T02:28:26.893Z,27.48
2019-05-11T02:31:04.879Z,19.57
2019-05-11T02:33:42.237Z,16.48
2019-05-11T02:36:20.380Z,16.35
2019-05-11T02:38:58.325Z,16.82
2019-05-11T02:41:37.674Z,17.00
2019-05-11T02:44:16.357Z,16.07
2019-05-11T02:46:54.079Z,16.60
2019-05-11T02:49:31.086Z,15.40
2019-05-11T02:52:08.864Z,15.38
2019-05-11T02:54:46.418Z,15.72
2019-05-11T02:57:24.841Z,17.00
2019-05-11T03:00:03.289Z,15.93
2019-05-11T03:02:43.165Z,15.20
2019-05-11T03:05:20.589Z,16.07
2019-05-11T03:07:59.855Z,14.25
2019-05-11T03:10:36.656Z,15.38
2019-05-11T03:13:14.010Z,13.70
2019-05-11T03:15:52.484Z,14.47
2019-05-11T03:18:31.023Z,16.05
2019-05-11T03:21:08.728Z,15.90
2019-05-11T03:23:46.972Z,14.00
2019-05-11T03:26:24.569Z,14.15
2019-05-11T03:29:05.247Z,16.35
2019-05-11T03:31:43.678Z,14.65
2019-05-11T03:34:20.897Z,15.03
2019-05-11T03:36:58.310Z,15.60
2019-05-11T03:39:36.935Z,14.85
2019-05-11T03:42:15.472Z,15.20
2019-05-11T03:44:54.107Z,14.20
2019-05-11T03:47:32.001Z,14.38
2019-05-11T03:50:10.023Z,14.38
2019-05-11T03:52:46.881Z,16.48
2019-05-11T03:55:26.953Z,15.30
2019-05-11T03:58:04.380Z,15.88
2019-05-11T04:00:43.118Z,15.90
2019-05-11T04:03:21.774Z,16.62
2019-05-11T04:05:59.189Z,16.85
2019-05-11T04:08:36.875Z,16.20
2019-05-11T04:11:14.837Z,15.58
2019-05-11T04:13:51.859Z,15.85
2019-05-11T04:16:29.503Z,16.25
2019-05-11T04:19:06.918Z,15.98
2019-05-11T04:21:44.979Z,14.80
2019-05-11T04:24:22.278Z,14.33
2019-05-11T04:27:00.016Z,14.45
2019-05-11T04:29:37.462Z,14.45
2019-05-11T04:32:15.858Z,15.43
2019-05-11T04:34:54.236Z,14.10
2019-05-11T04:37:32.173Z,14.33
2019-05-11T04:40:10.214Z,15.95
2019-05-11T04:42:54.994Z,15.68
2019-05-11T04:45:28.697Z,16.83
2019-05-11T04:48:07.541Z,17.40
2019-05-11T04:50:44.539Z,15.90
2019-05-11T04:53:22.738Z,15.38
2019-05-11T04:55:59.925Z,17.07
2019-05-11T04:58:37.458Z,16.35
2019-05-11T05:01:14.775Z,16.35
2019-05-11T05:03:56.225Z,15.20
2019-05-11T05:09:09.826Z,15.90
2019-05-11T05:11:47.274Z,16.05
2019-05-11T05:14:25.077Z,17.07
2019-05-11T05:17:02.547Z,16.32
2019-05-11T05:19:39.718Z,17.92
2019-05-11T05:22:19.376Z,17.42
2019-05-11T05:24:57.331Z,17.55
2019-05-11T05:27:34.644Z,16.85
2019-05-11T05:30:13.061Z,17.73
2019-05-11T05:32:50.353Z,17.02
2019-05-11T05:35:28.312Z,17.37
2019-05-11T05:38:06.648Z,17.67
2019-05-11T05:40:44.814Z,18.55
2019-05-11T05:43:28.116Z,17.40
2019-05-11T05:46:03.260Z,17.12
2019-05-11T05:48:40.788Z,16.62
2019-05-11T05:51:19.417Z,16.12
2019-05-11T05:53:56.698Z,16.35
2019-05-11T05:56:34.527Z,15.78
2019-05-11T05:59:12.178Z,17.05
2019-05-11T06:01:49.890Z,16.42
2019-05-11T06:04:26.606Z,16.82
2019-05-11T06:07:04.524Z,14.73
2019-05-11T06:09:44.033Z,15.85
2019-05-11T06:12:21.902Z,16.35
2019-05-11T06:14:59.395Z,16.52
2019-05-11T06:17:37.816Z,16.50
2019-05-11T06:20:15.591Z,15.78
2019-05-11T06:22:52.930Z,16.85
2019-05-11T06:25:30.096Z,16.95
2019-05-11T06:28:08.846Z,16.00
2019-05-11T06:30:46.095Z,17.17
2019-05-11T06:33:23.897Z,16.48
2019-05-11T06:36:01.288Z,15.25
2019-05-11T06:38:40.091Z,15.68
2019-05-11T06:41:18.345Z,17.12
2019-05-11T06:44:01.805Z,17.48
2019-05-11T06:46:36.837Z,18.05
2019-05-11T06:49:14.889Z,17.95
2019-05-11T06:51:52.397Z,17.12
2019-05-11T06:54:29.392Z,16.00
2019-05-11T06:57:06.731Z,14.98
2019-05-11T06:59:44.917Z,16.12
2019-05-11T07:02:22.006Z,15.28
2019-05-11T07:04:59.444Z,15.63
2019-05-11T07:07:47.070Z,16.05
2019-05-11T07:10:16.906Z,16.32
2019-05-11T07:12:55.299Z,14.98
2019-05-11T07:15:33.024Z,14.23
2019-05-11T07:18:10.388Z,13.88
2019-05-11T07:20:50.796Z,14.90
2019-05-11T07:23:28.138Z,14.40
2019-05-11T07:26:07.685Z,15.20
2019-05-11T07:28:45.324Z,15.43
2019-05-11T07:31:23.091Z,15.40
2019-05-11T07:34:00.599Z,16.42
2019-05-11T07:36:38.770Z,15.88
2019-05-11T07:39:18.645Z,14.90
2019-05-11T07:41:58.494Z,14.90
2019-05-11T07:44:41.485Z,15.08
2019-05-11T07:47:18.669Z,15.15
2019-05-11T07:49:57.909Z,16.37
2019-05-11T07:52:37.847Z,14.85
2019-05-11T07:55:18.796Z,15.72
2019-05-11T07:57:55.280Z,16.40
2019-05-11T08:00:36.367Z,16.20
2019-05-11T08:03:12.568Z,14.73
2019-05-11T08:05:49.966Z,17.65
2019-05-11T08:08:28.307Z,14.15
2019-05-11T08:11:08.107Z,13.72
2019-05-11T08:13:47.890Z,15.03
2019-05-11T08:16:25.149Z,13.22
2019-05-11T08:19:04.992Z,12.58
2019-05-11T08:21:41.913Z,14.78
2019-05-11T08:24:20.152Z,14.50
2019-05-11T08:26:58.382Z,13.68
2019-05-11T08:29:38.442Z,14.93
2019-05-11T08:32:15.138Z,13.68
2019-05-11T08:34:53.668Z,13.53
2019-05-11T08:37:30.711Z,13.80
2019-05-11T08:40:09.254Z,13.70
2019-05-11T08:42:48.246Z,14.28
2019-05-11T08:45:28.158Z,13.62
2019-05-11T08:48:08.098Z,14.03
2019-05-11T08:50:46.087Z,14.55
2019-05-11T08:53:23.829Z,14.38
2019-05-11T08:56:02.519Z,14.98
2019-05-11T08:58:40.141Z,15.20
2019-05-11T09:01:18.428Z,14.10
2019-05-11T09:03:58.402Z,15.75
2019-05-11T09:06:37.656Z,16.87
2019-05-11T09:09:14.825Z,17.00
2019-05-11T09:11:52.196Z,15.85
2019-05-11T09:14:29.616Z,15.83
2019-05-11T09:17:07.966Z,15.53
2019-05-11T09:19:48.062Z,16.50
2019-05-11T09:22:25.300Z,15.63
2019-05-11T09:25:02.688Z,14.33
2019-05-11T09:27:43.492Z,15.18
2019-05-11T09:30:20.990Z,16.45
2019-05-11T09:32:59.763Z,16.57
2019-05-11T09:35:47.656Z,15.55
2019-05-11T09:38:18.583Z,15.48
2019-05-11T09:40:58.509Z,16.57
2019-05-11T09:43:37.556Z,17.02
2019-05-11T09:46:14.960Z,15.30
2019-05-11T09:48:53.072Z,15.50
2019-05-11T09:51:31.681Z,14.87
2019-05-11T09:54:09.777Z,16.15
2019-05-11T09:56:48.676Z,18.30
2019-05-11T09:59:28.164Z,19.77
2019-05-11T10:02:07.828Z,16.05
2019-05-11T10:04:44.715Z,15.13
2019-05-11T10:07:22.259Z,16.93
2019-05-11T10:09:59.507Z,16.77
2019-05-11T10:12:37.995Z,16.90
2019-05-11T10:15:15.757Z,19.30
2019-05-11T10:17:53.323Z,17.40
2019-05-11T10:20:30.858Z,18.87
2019-05-11T10:23:09.571Z,17.92
2019-05-11T10:25:48.079Z,16.25
2019-05-11T10:28:28.480Z,15.90
2019-05-11T10:31:08.372Z,16.77
2019-05-11T10:33:45.429Z,16.93
2019-05-11T10:36:23.272Z,17.80
2019-05-11T10:39:00.669Z,17.23
2019-05-11T10:41:39.288Z,17.82
2019-05-11T10:44:18.780Z,16.50
2019-05-11T10:46:58.712Z,17.23
2019-05-11T10:49:37.866Z,16.97
2019-05-11T10:52:18.030Z,17.98
2019-05-11T10:54:58.394Z,17.73
2019-05-11T10:57:34.732Z,17.77
2019-05-11T11:00:12.465Z,17.80
2019-05-11T11:02:50.464Z,18.02
2019-05-11T11:05:27.995Z,17.77
2019-05-11T11:08:05.450Z,17.95
2019-05-11T11:10:42.967Z,16.97
2019-05-11T11:13:20.741Z,18.00
2019-05-11T11:16:01.622Z,17.77
2019-05-11T11:18:38.099Z,15.83
2019-05-11T11:21:19.213Z,16.60
2019-05-11T11:23:58.561Z,17.10
2019-05-11T11:26:38.015Z,16.87
2019-05-11T11:29:17.881Z,18.12
2019-05-11T11:31:54.756Z,17.35
2019-05-11T11:34:32.695Z,18.23
2019-05-11T11:37:10.345Z,19.50
2019-05-11T11:39:48.139Z,18.62
2019-05-11T11:42:28.256Z,19.62
2019-05-11T11:45:07.876Z,18.15
2019-05-11T11:47:45.528Z,17.12
2019-05-11T11:50:23.582Z,16.62
2019-05-11T11:53:00.926Z,17.75
2019-05-11T11:55:39.768Z,15.60
2019-05-11T11:58:23.556Z,16.70
2019-05-11T12:00:58.688Z,17.95
2019-05-11T12:03:38.513Z,17.40
2019-05-11T12:06:18.158Z,17.60
2019-05-11T12:08:58.292Z,17.37
2019-05-11T12:11:35.447Z,17.27
2019-05-11T12:14:12.915Z,18.17
2019-05-11T12:17:04.013Z,18.37
2019-05-11T12:19:29.820Z,18.17
2019-05-11T12:22:08.611Z,17.60
2019-05-11T12:24:48.140Z,17.60
2019-05-11T12:27:25.960Z,18.12
2019-05-11T12:30:04.112Z,19.55
2019-05-11T12:32:48.860Z,17.25
2019-05-11T12:35:28.401Z,16.90
2019-05-11T12:38:08.043Z,16.20
2019-05-11T12:40:47.581Z,16.93
2019-05-11T12:43:24.303Z,18.50
2019-05-11T12:46:05.235Z,17.77
2019-05-11T12:48:44.378Z,17.77
2019-05-11T12:51:21.365Z,16.60
2019-05-11T12:53:59.830Z,15.70
2019-05-11T12:56:38.286Z,15.53
2019-05-11T12:59:15.841Z,16.27
2019-05-11T13:01:54.399Z,15.88
2019-05-11T13:04:31.409Z,16.52
2019-05-11T13:07:08.811Z,15.58
2019-05-11T13:09:48.481Z,16.42
2019-05-11T13:12:27.905Z,15.75
2019-05-11T13:15:07.823Z,17.05
2019-05-11T13:17:45.760Z,15.65
2019-05-11T13:20:23.582Z,16.80
2019-05-11T13:23:01.039Z,16.32
2019-05-11T13:25:39.104Z,17.65
2019-05-11T13:28:17.984Z,15.85
2019-05-11T13:30:57.917Z,17.37
2019-05-11T13:33:35.744Z,15.85
2019-05-11T13:36:13.767Z,16.70
2019-05-11T13:38:51.937Z,16.65
2019-05-11T13:41:29.802Z,16.40
2019-05-11T13:44:07.971Z,16.32
2019-05-11T13:46:47.949Z,15.98
2019-05-11T13:49:28.182Z,15.65
2019-05-11T13:52:05.894Z,16.00
2019-05-11T13:54:43.540Z,16.87
2019-05-11T13:57:21.300Z,16.15
2019-05-11T13:59:58.721Z,16.97
2019-05-11T14:02:37.961Z,16.40
2019-05-11T14:05:18.069Z,16.42
2019-05-11T14:07:56.018Z,15.05
2019-05-11T14:10:33.350Z,15.60
2019-05-11T14:13:11.685Z,15.30
2019-05-11T14:15:49.413Z,15.83
2019-05-11T14:18:28.178Z,15.78
2019-05-11T14:21:07.911Z,15.98
2019-05-11T14:23:45.129Z,16.30
2019-05-11T14:26:22.525Z,15.18
2019-05-11T14:29:01.241Z,14.87
2019-05-11T14:31:38.949Z,17.07
2019-05-11T14:34:18.219Z,16.45
2019-05-11T14:36:58.179Z,15.28
2019-05-11T14:39:38.356Z,16.00
2019-05-11T14:42:15.257Z,13.53
2019-05-11T14:44:53.233Z,14.68
2019-05-11T14:47:30.561Z,14.30
2019-05-11T14:50:08.783Z,13.72
2019-05-11T14:52:48.853Z,13.65
2019-05-11T14:55:28.230Z,12.47
2019-05-11T14:58:04.707Z,13.30
2019-05-11T15:00:40.713Z,12.50
2019-05-11T15:03:18.386Z,12.53
2019-05-11T15:05:58.284Z,11.60
2019-05-11T15:08:35.923Z,11.10
2019-05-11T15:11:13.392Z,11.90
2019-05-11T15:13:50.538Z,11.30
2019-05-11T15:16:28.006Z,10.03
2019-05-11T15:19:05.475Z,10.38
2019-05-11T15:21:43.320Z,11.22
2019-05-11T15:24:20.337Z,12.93
2019-05-11T15:26:57.925Z,11.28
2019-05-11T15:29:35.164Z,10.68
2019-05-11T15:32:12.797Z,10.90
2019-05-11T15:34:50.419Z,10.93
2019-05-11T15:37:28.681Z,10.43
2019-05-11T15:40:18.670Z,10.03
2019-05-11T15:42:58.554Z,10.43
2019-05-11T15:45:38.022Z,10.32
2019-05-11T15:48:15.730Z,10.48
2019-05-11T15:50:53.546Z,10.93
2019-05-11T15:53:31.333Z,10.70
2019-05-11T15:56:09.100Z,10.35
2019-05-11T15:58:48.596Z,10.48
2019-05-11T16:01:26.352Z,10.55
2019-05-11T16:04:04.112Z,10.85
2019-05-11T16:06:41.612Z,9.68
2019-05-11T16:09:19.664Z,10.03
2019-05-11T16:11:58.316Z,9.63
2019-05-11T16:14:38.207Z,10.08
2019-05-11T16:17:14.995Z,9.68
2019-05-11T16:19:53.149Z,9.10
2019-05-11T16:22:30.649Z,9.90
2019-05-11T16:25:08.810Z,9.63
2019-05-11T16:27:45.890Z,10.80
2019-05-11T16:30:24.641Z,10.08
2019-05-11T16:33:02.083Z,11.05
2019-05-11T16:35:39.998Z,10.08
2019-05-11T16:38:18.886Z,10.03
2019-05-11T16:40:58.436Z,10.50
2019-05-11T16:43:38.538Z,9.90
2019-05-11T16:46:17.731Z,10.10
2019-05-11T16:48:57.790Z,9.93
2019-05-11T16:51:38.705Z,9.45
2019-05-11T16:54:15.441Z,9.70
2019-05-11T16:56:53.181Z,10.03
2019-05-11T16:59:30.390Z,10.45
2019-05-11T17:02:08.527Z,10.88
2019-05-11T17:04:47.966Z,10.72
2019-05-11T17:07:25.165Z,10.32
2019-05-11T17:10:02.602Z,10.28
2019-05-11T17:12:40.461Z,9.85
2019-05-11T17:15:19.267Z,10.65
2019-05-11T17:17:58.764Z,10.82
2019-05-11T17:20:35.973Z,10.58
2019-05-11T17:23:13.755Z,10.60
2019-05-11T17:25:50.765Z,10.53
2019-05-11T17:28:28.212Z,10.88
2019-05-11T17:31:07.747Z,11.00
2019-05-11T17:33:44.841Z,10.75
2019-05-11T17:36:21.823Z,10.88
2019-05-11T17:38:59.286Z,10.38
2019-05-11T17:41:38.618Z,10.63
2019-05-11T17:44:18.552Z,9.38
2019-05-11T17:46:57.880Z,9.45
2019-05-11T17:49:38.281Z,9.58
2019-05-11T17:52:15.307Z,10.60
2019-05-11T17:54:55.219Z,9.90
2019-05-11T17:57:32.632Z,8.93
2019-05-11T18:00:10.159Z,9.03
2019-05-11T18:02:49.083Z,9.63
2019-05-11T18:05:28.603Z,9.43
2019-05-11T18:08:08.570Z,9.38
2019-05-11T18:10:47.802Z,9.50
2019-05-11T18:13:24.528Z,9.63
2019-05-11T18:16:05.377Z,9.73
2019-05-11T18:18:43.900Z,9.10
2019-05-11T18:21:21.234Z,9.65
2019-05-11T18:23:58.847Z,10.15
2019-05-11T18:26:38.280Z,9.10
2019-05-11T18:29:18.074Z,9.93
2019-05-11T18:31:57.808Z,9.30
2019-05-11T18:34:34.636Z,10.32
2019-05-11T18:37:13.014Z,9.58
2019-05-11T18:39:52.799Z,10.00
2019-05-11T18:42:29.869Z,9.85
2019-05-11T18:45:08.237Z,10.35
2019-05-11T18:47:48.845Z,10.70
2019-05-11T18:50:31.310Z,11.73
2019-05-11T18:53:09.237Z,12.13
2019-05-11T18:55:48.660Z,11.10
2019-05-11T18:58:27.692Z,12.55
2019-05-11T19:01:06.170Z,11.73
2019-05-11T19:03:44.193Z,11.25
2019-05-11T19:06:22.976Z,12.23
2019-05-11T19:09:02.178Z,13.30
2019-05-11T19:11:42.829Z,12.58
2019-05-11T19:14:19.682Z,13.20
2019-05-11T19:16:56.858Z,12.85
2019-05-11T19:19:34.958Z,11.80
2019-05-11T19:22:13.509Z,13.55
2019-05-11T19:24:50.740Z,13.08
2019-05-11T19:27:28.824Z,12.95
2019-05-11T19:30:07.970Z,12.73
2019-05-11T19:32:45.218Z,14.53
2019-05-11T19:35:22.315Z,13.03
2019-05-11T19:38:02.044Z,13.18
2019-05-11T19:40:42.490Z,14.13
2019-05-11T19:43:19.813Z,13.55
2019-05-11T19:45:58.166Z,14.05
2019-05-11T19:48:35.555Z,13.60
2019-05-11T19:51:13.329Z,13.95
2019-05-11T19:53:52.450Z,15.48
2019-05-11T19:56:29.827Z,14.55
2019-05-11T19:59:08.532Z,14.35
2019-05-11T20:01:47.064Z,14.63
2019-05-11T20:04:24.618Z,13.60
2019-05-11T20:07:02.202Z,14.00
2019-05-11T20:09:39.497Z,13.72
2019-05-11T20:12:20.052Z,13.35
2019-05-11T20:14:58.638Z,13.40
2019-05-11T20:17:36.186Z,13.65
2019-05-11T20:20:13.445Z,13.22
2019-05-11T20:22:51.802Z,13.05
2019-05-11T20:25:30.875Z,14.13
2019-05-11T20:28:08.510Z,13.78
2019-05-11T20:30:48.260Z,13.72
2019-05-11T20:33:25.357Z,14.33
2019-05-11T20:36:02.193Z,13.85
2019-05-11T20:38:39.838Z,14.10
2019-05-11T20:41:17.075Z,14.25
2019-05-11T20:43:55.553Z,14.53
2019-05-11T20:46:32.888Z,14.63
2019-05-11T20:49:10.741Z,15.20
2019-05-11T20:51:48.566Z,15.10
2019-05-11T20:54:28.255Z,15.40
2019-05-11T20:57:08.898Z,15.40
2019-05-11T20:59:46.606Z,14.98
2019-05-11T21:02:23.646Z,15.93
2019-05-11T21:05:02.022Z,16.52
2019-05-11T21:07:41.156Z,15.20
2019-05-11T21:10:19.308Z,14.68
2019-05-11T21:12:57.741Z,15.55
2019-05-11T21:15:38.321Z,15.63
2019-05-11T21:18:15.355Z,15.85
2019-05-11T21:20:52.705Z,16.93
2019-05-11T21:23:30.019Z,16.12
2019-05-11T21:26:09.918Z,16.77
2019-05-11T21:28:48.662Z,15.38
2019-05-11T21:31:29.011Z,15.95
2019-05-11T21:34:08.073Z,16.37
2019-05-11T21:36:48.305Z,15.75
2019-05-11T21:39:24.467Z,15.95
2019-05-11T21:42:01.643Z,15.40
2019-05-11T21:44:39.726Z,15.60
2019-05-11T21:47:18.330Z,16.00
2019-05-11T21:49:57.772Z,17.30
2019-05-11T21:52:38.160Z,15.95
2019-05-11T21:55:15.597Z,17.25
2019-05-11T21:57:54.641Z,16.50
2019-05-11T22:00:34.299Z,15.98
2019-05-11T22:03:12.871Z,16.23
2019-05-11T22:05:50.225Z,15.65
2019-05-11T22:08:28.473Z,15.90
2019-05-11T22:11:08.216Z,16.05
2019-05-11T22:13:45.447Z,15.10
2019-05-11T22:16:22.792Z,15.85
2019-05-11T22:19:00.834Z,16.27
2019-05-11T22:21:37.690Z,15.38
2019-05-11T22:24:14.869Z,15.78
2019-05-11T22:26:52.933Z,16.10
2019-05-11T22:29:32.915Z,15.88
2019-05-11T22:32:11.068Z,15.70
2019-05-11T22:34:49.194Z,15.63
2019-05-11T22:37:27.736Z,15.80
2019-05-11T22:40:08.152Z,16.10
2019-05-11T22:42:45.686Z,16.07
2019-05-11T22:45:23.627Z,15.83
2019-05-11T22:48:02.185Z,15.35
2019-05-11T22:50:43.707Z,15.43
2019-05-11T22:53:20.588Z,16.05
2019-05-11T22:55:58.554Z,16.02
2019-05-11T22:58:36.312Z,15.95
2019-05-11T23:01:14.492Z,16.35
2019-05-11T23:03:52.323Z,15.80
2019-05-11T23:06:32.344Z,16.82
2019-05-11T23:09:10.052Z,16.65
2019-05-11T23:11:48.337Z,16.60
2019-05-11T23:14:25.304Z,16.50
2019-05-11T23:17:02.487Z,16.45
2019-05-11T23:19:40.579Z,14.63
2019-05-11T23:22:18.973Z,11.90
2019-05-11T23:24:58.652Z,15.72
2019-05-11T23:27:35.985Z,16.67
2019-05-11T23:30:13.607Z,16.10
2019-05-11T23:32:51.905Z,15.20
2019-05-11T23:35:30.370Z,16.27
2019-05-11T23:38:08.112Z,16.10
2019-05-11T23:40:48.100Z,15.40
2019-05-11T23:43:29.783Z,15.38
2019-05-11T23:46:03.996Z,16.27
2019-05-11T23:48:41.404Z,16.23
2019-05-11T23:51:19.029Z,15.65
2019-05-11T23:53:58.841Z,17.10
2019-05-11T23:56:38.641Z,16.67
2019-05-11T23:59:16.156Z,16.27
